NEW EXCHEQUER-LK MCCLURE (EXC)

Elevation: 879' · MERCED R basin · Operator: Merced Irrigation District

Provisional data, subject to change.
Query executed Wednesday at 21:12:46   clock

Select a sensor type for a plot of data.
Note: Reservoir Flows are daily averages.

Earlier

Date RES ELE    STORAGE    RES CHG    TOC STO    ABV TOC    OUTFLOW    INFLOW    PPT INC    TEMP MN    TEMP MX    TEMP AV   
 FEET   AF   AF   AF   AF   CFS   CFS   INCHES   DEG F   DEG F   DEG F  
09/02/2014 650.46 155830 -- 1013100 -857270 622 0 0.00 -- -- --
09/03/2014 649.88 154780 -- 1007400 -852620 549 22 0.00 -- -- --
09/04/2014 649.02 153240 -- 1001600 -848360 752 0 0.00 -- -- --
09/05/2014 648.18 151720 -- 995910 -844190 744 0 0.00 -- -- --
09/06/2014 647.43 150430 -- 990170 -839740 669 17 0.00 -- -- --
09/07/2014 646.66 149120 -- 984440 -835320 651 0 0.00 -- -- --
09/08/2014 645.83 147710 -- 978700 -830990 685 0 0.00 -- -- --
09/09/2014 645.12 146500 -- 972960 -826460 605 0 0.00 -- -- --
09/10/2014 644.56 145550 -- 967220 -821670 494 14 0.00 -- -- --
09/11/2014 643.82 144290 -- 961490 -817200 618 0 0.00 -- -- --
09/12/2014 642.67 142340 -- 955750 -813410 878 0 0.00 -- -- --
09/13/2014 642.33 141760 -- 950010 -- 339 47 0.00 -- -- --
09/14/2014 641.52 140380 -- 944270 -803890 669 0 0.00 -- -- --
09/15/2014 640.66 138920 -- 938530 -799610 705 0 0.00 -- -- --
09/16/2014 639.97 137750 -- 932800 -795050 577 0 0.00 -- -- --
09/17/2014 639.28 136580 -- 927060 -790480 557 0 0.00 -- -- --
09/18/2014 638.57 135410 -- 921320 -785910 552 0 0.00 -- -- --
09/19/2014 637.95 134420 -- 915580 -781160 515 15 0.00 -- -- --
09/20/2014 637.32 133410 -- 909850 -776440 499 0 0.00 -- -- --
09/21/2014 636.68 132390 -- 904110 -771720 513 0 0.00 -- -- --
09/22/2014 636.04 131490 -- 898370 -766880 505 51 0.00 -- -- --
09/23/2014 635.30 130180 -- 892630 -762450 577 0 0.00 -- -- --
09/24/2014 634.65 129140 -- 886900 -757760 495 0 0.00 -- -- --
09/25/2014 633.62 127490 -- 881160 -753670 724 0 0.00 -- -- --
09/26/2014 632.70 126020 -- 875420 -749400 710 0 0.00 -- -- --
09/27/2014 631.98 124870 -- 869680 -- 545 0 0.00 -- -- --
09/28/2014 631.37 123890 -- 863940 -740050 464 0 0.01 -- -- --
09/29/2014 630.68 122790 -- 858210 -735420 542 0 0.00 -- -- --
09/30/2014 629.94 121610 -- 852470 -730860 565 0 0.00 -- -- --
10/01/2014 -- -- -- -- -- -- -- -- -- -- --

Later | Latest

Warning! This data is preliminary and subject to revision.

Download Data Now Download Data Now | Show EXC Map | Plot EXC Data | 1 Month EXC Data | Real-Time EXC Data | EXC Info